sensor_id;sensor_type;location;lat;lon;timestamp;pressure;altitude;pressure_sealevel;temperature;humidity
65359;BME280;52491;45.900;6.346;2023-03-05T00:02:17;93746.28;;;23.18;21.53
65359;BME280;52491;45.900;6.346;2023-03-05T00:04:43;93748.13;;;23.17;21.49
65359;BME280;52491;45.900;6.346;2023-03-05T00:07:09;93744.69;;;23.17;21.48
65359;BME280;52491;45.900;6.346;2023-03-05T00:09:37;93739.38;;;23.17;21.44
65359;BME280;52491;45.900;6.346;2023-03-05T00:12:03;93749.22;;;23.16;21.42
65359;BME280;52491;45.900;6.346;2023-03-05T00:14:28;93745.72;;;23.16;21.32
65359;BME280;52491;45.900;6.346;2023-03-05T00:16:54;93738.81;;;23.15;21.39
65359;BME280;52491;45.900;6.346;2023-03-05T00:19:19;93741.47;;;23.15;21.28
65359;BME280;52491;45.900;6.346;2023-03-05T00:21:45;93742.53;;;23.14;21.43
65359;BME280;52491;45.900;6.346;2023-03-05T00:24:14;93744.38;;;23.13;21.32
65359;BME280;52491;45.900;6.346;2023-03-05T00:26:41;93743.56;;;23.13;21.23
65359;BME280;52491;45.900;6.346;2023-03-05T00:29:08;93747.84;;;23.14;21.17
65359;BME280;52491;45.900;6.346;2023-03-05T00:31:35;93743.56;;;23.13;21.29
65359;BME280;52491;45.900;6.346;2023-03-05T00:34:08;93748.91;;;23.13;21.16
65359;BME280;52491;45.900;6.346;2023-03-05T00:36:42;93748.09;;;23.12;21.18
65359;BME280;52491;45.900;6.346;2023-03-05T00:39:09;93750.22;;;23.10;21.15
65359;BME280;52491;45.900;6.346;2023-03-05T00:41:35;93744.91;;;23.10;21.13
65359;BME280;52491;45.900;6.346;2023-03-05T00:44:00;93749.41;;;23.10;21.27
65359;BME280;52491;45.900;6.346;2023-03-05T00:46:26;93753.69;;;23.11;21.16
65359;BME280;52491;45.900;6.346;2023-03-05T00:48:53;93744.09;;;23.10;21.04
65359;BME280;52491;45.900;6.346;2023-03-05T00:51:19;93754.72;;;23.10;21.10
65359;BME280;52491;45.900;6.346;2023-03-05T00:53:44;93749.41;;;23.10;20.79
65359;BME280;52491;45.900;6.346;2023-03-05T00:56:10;93750.47;;;23.09;20.96
65359;BME280;52491;45.900;6.346;2023-03-05T00:58:36;93745.41;;;23.07;21.34
65359;BME280;52491;45.900;6.346;2023-03-05T01:01:02;93744.63;;;23.07;21.08
65359;BME280;52491;45.900;6.346;2023-03-05T01:03:30;93739.28;;;23.07;21.05
65359;BME280;52491;45.900;6.346;2023-03-05T01:05:55;93741.94;;;23.07;21.01
65359;BME280;52491;45.900;6.346;2023-03-05T01:08:21;93738.75;;;23.05;21.05
65359;BME280;52491;45.900;6.346;2023-03-05T01:10:47;93744.88;;;23.05;20.99
65359;BME280;52491;45.900;6.346;2023-03-05T01:13:13;93736.09;;;23.05;20.89
65359;BME280;52491;45.900;6.346;2023-03-05T01:15:38;93742.22;;;23.05;20.95
65359;BME280;52491;45.900;6.346;2023-03-05T01:18:04;93730.78;;;23.05;21.01
65359;BME280;52491;45.900;6.346;2023-03-05T01:20:30;93730.53;;;23.06;20.99
65359;BME280;52491;45.900;6.346;2023-03-05T01:22:55;93729.47;;;23.07;20.93
65359;BME280;52491;45.900;6.346;2023-03-05T01:25:23;93729.47;;;23.07;20.85
65359;BME280;52491;45.900;6.346;2023-03-05T01:27:49;93728.66;;;23.07;20.86
65359;BME280;52491;45.900;6.346;2023-03-05T01:30:15;93725.44;;;23.05;20.83
65359;BME280;52491;45.900;6.346;2023-03-05T01:32:41;93718.03;;;23.07;20.74
65359;BME280;52491;45.900;6.346;2023-03-05T01:35:07;93726.78;;;23.07;20.87
65359;BME280;52491;45.900;6.346;2023-03-05T01:37:34;93718.81;;;23.07;20.74
65359;BME280;52491;45.900;6.346;2023-03-05T01:40:00;93715.38;;;23.07;20.88
65359;BME280;52491;45.900;6.346;2023-03-05T01:42:26;93718.03;;;23.07;20.69
65359;BME280;52491;45.900;6.346;2023-03-05T01:45:17;93705.53;;;23.07;20.74
65359;BME280;52491;45.900;6.346;2023-03-05T01:47:43;93706.84;;;23.05;20.57
65359;BME280;52491;45.900;6.346;2023-03-05T01:50:13;93703.94;;;23.06;20.80
65359;BME280;52491;45.900;6.346;2023-03-05T01:52:44;93699.69;;;23.05;20.63
65359;BME280;52491;45.900;6.346;2023-03-05T01:55:14;93701.53;;;23.05;20.67
65359;BME280;52491;45.900;6.346;2023-03-05T01:57:49;93696.75;;;23.07;20.69
65359;BME280;52491;45.900;6.346;2023-03-05T02:00:25;93694.88;;;23.07;20.62
65359;BME280;52491;45.900;6.346;2023-03-05T02:02:52;93686.41;;;23.05;20.75
65359;BME280;52491;45.900;6.346;2023-03-05T02:05:23;93687.72;;;23.08;20.70
65359;BME280;52491;45.900;6.346;2023-03-05T02:07:55;93686.13;;;23.07;20.57
65359;BME280;52491;45.900;6.346;2023-03-05T02:10:26;93679.72;;;23.08;20.67
65359;BME280;52491;45.900;6.346;2023-03-05T02:12:55;93680.25;;;22.99;20.79
65359;BME280;52491;45.900;6.346;2023-03-05T02:15:22;93677.03;;;22.97;20.69
65359;BME280;52491;45.900;6.346;2023-03-05T02:17:48;93670.69;;;23.04;20.63
65359;BME280;52491;45.900;6.346;2023-03-05T02:20:29;93672.59;;;23.08;20.65
65359;BME280;52491;45.900;6.346;2023-03-05T02:22:55;93672.03;;;23.06;20.72
65359;BME280;52491;45.900;6.346;2023-03-05T02:25:27;93673.63;;;23.07;20.49
65359;BME280;52491;45.900;6.346;2023-03-05T02:27:57;93671.75;;;23.08;20.61
65359;BME280;52491;45.900;6.346;2023-03-05T02:30:24;93662.97;;;23.07;20.48
65359;BME280;52491;45.900;6.346;2023-03-05T02:32:50;93669.09;;;23.08;20.55
65359;BME280;52491;45.900;6.346;2023-03-05T02:35:15;93669.09;;;23.08;20.65
65359;BME280;52491;45.900;6.346;2023-03-05T02:37:41;93665.38;;;23.04;20.50
65359;BME280;52491;45.900;6.346;2023-03-05T02:40:08;93663.47;;;22.99;20.69
65359;BME280;52491;45.900;6.346;2023-03-05T02:42:34;93658.16;;;22.99;20.59
65359;BME280;52491;45.900;6.346;2023-03-05T02:45:00;93661.09;;;22.97;20.61
65359;BME280;52491;45.900;6.346;2023-03-05T02:47:26;93655.78;;;22.97;20.69
65359;BME280;52491;45.900;6.346;2023-03-05T02:49:52;93654.69;;;22.98;20.61
65359;BME280;52491;45.900;6.346;2023-03-05T02:52:19;93645.13;;;22.97;20.58
65359;BME280;52491;45.900;6.346;2023-03-05T02:54:44;93653.13;;;22.97;20.54
65359;BME280;52491;45.900;6.346;2023-03-05T02:57:10;93650.47;;;22.97;20.54
65359;BME280;52491;45.900;6.346;2023-03-05T02:59:36;93649.66;;;22.97;20.58
65359;BME280;52491;45.900;6.346;2023-03-05T03:02:01;93647.00;;;22.97;20.74
65359;BME280;52491;45.900;6.346;2023-03-05T03:04:27;93655.78;;;22.97;20.61
65359;BME280;52491;45.900;6.346;2023-03-05T03:06:53;93649.38;;;22.98;20.61
65359;BME280;52491;45.900;6.346;2023-03-05T03:09:18;93647.00;;;22.97;20.61
65359;BME280;52491;45.900;6.346;2023-03-05T03:11:44;93644.34;;;22.97;20.59
65359;BME280;52491;45.900;6.346;2023-03-05T03:14:10;93644.34;;;22.97;20.62
65359;BME280;52491;45.900;6.346;2023-03-05T03:16:35;93637.16;;;22.97;20.79
65359;BME280;52491;45.900;6.346;2023-03-05T03:19:01;93641.69;;;22.97;20.61
65359;BME280;52491;45.900;6.346;2023-03-05T03:21:26;93640.63;;;22.98;20.74
65359;BME280;52491;45.900;6.346;2023-03-05T03:23:52;93638.78;;;23.04;20.49
65359;BME280;52491;45.900;6.346;2023-03-05T03:26:18;93639.84;;;23.08;20.54
65359;BME280;52491;45.900;6.346;2023-03-05T03:28:44;93645.16;;;23.08;20.51
65359;BME280;52491;45.900;6.346;2023-03-05T03:31:10;93636.16;;;23.09;20.54
65359;BME280;52491;45.900;6.346;2023-03-05T03:33:35;93635.34;;;23.08;20.50
65359;BME280;52491;45.900;6.346;2023-03-05T03:36:03;93633.50;;;23.09;20.63
65359;BME280;52491;45.900;6.346;2023-03-05T03:38:29;93629.22;;;23.08;20.56
65359;BME280;52491;45.900;6.346;2023-03-05T03:40:55;93632.94;;;23.07;20.54
65359;BME280;52491;45.900;6.346;2023-03-05T03:43:20;93633.72;;;23.07;20.61
65359;BME280;52491;45.900;6.346;2023-03-05T03:45:46;93624.97;;;23.07;20.48
65359;BME280;52491;45.900;6.346;2023-03-05T03:48:12;93631.56;;;22.99;20.59
65359;BME280;52491;45.900;6.346;2023-03-05T03:50:41;93635.06;;;22.99;20.62
65359;BME280;52491;45.900;6.346;2023-03-05T03:53:08;93633.97;;;23.00;20.83
65359;BME280;52491;45.900;6.346;2023-03-05T03:55:39;93631.56;;;22.99;20.65
65359;BME280;52491;45.900;6.346;2023-03-05T03:58:06;93631.56;;;22.99;20.64
65359;BME280;52491;45.900;6.346;2023-03-05T04:00:32;93633.72;;;23.02;20.64
65359;BME280;52491;45.900;6.346;2023-03-05T04:02:58;93635.56;;;23.01;20.61
65359;BME280;52491;45.900;6.346;2023-03-05T04:05:24;93630.53;;;23.00;20.69
65359;BME280;52491;45.900;6.346;2023-03-05T04:07:49;93618.03;;;23.00;20.41
65359;BME280;52491;45.900;6.346;2023-03-05T04:10:16;93625.72;;;23.02;20.49
65359;BME280;52491;45.900;6.346;2023-03-05T04:12:41;93622.28;;;23.01;20.58
65359;BME280;52491;45.900;6.346;2023-03-05T04:15:09;93623.06;;;23.02;20.49
65359;BME280;52491;45.900;6.346;2023-03-05T04:17:35;93616.72;;;23.03;20.62
65359;BME280;52491;45.900;6.346;2023-03-05T04:20:00;93615.09;;;23.02;20.55
65359;BME280;52491;45.900;6.346;2023-03-05T04:22:26;93618.03;;;23.00;20.63
65359;BME280;52491;45.900;6.346;2023-03-05T04:24:52;93618.81;;;23.01;20.61
65359;BME280;52491;45.900;6.346;2023-03-05T04:27:18;93610.06;;;23.00;20.64
65359;BME280;52491;45.900;6.346;2023-03-05T04:29:43;93608.75;;;23.08;20.54
65359;BME280;52491;45.900;6.346;2023-03-05T04:32:09;93603.97;;;23.10;20.44
65359;BME280;52491;45.900;6.346;2023-03-05T04:34:36;93605.31;;;23.13;20.53
65359;BME280;52491;45.900;6.346;2023-03-05T04:37:02;93612.50;;;23.12;20.42
65359;BME280;52491;45.900;6.346;2023-03-05T04:39:28;93609.03;;;23.12;20.45
65359;BME280;52491;45.900;6.346;2023-03-05T04:41:53;93615.16;;;23.12;20.47
65359;BME280;52491;45.900;6.346;2023-03-05T04:44:19;93606.09;;;23.13;20.49
65359;BME280;52491;45.900;6.346;2023-03-05T04:46:48;93609.59;;;23.14;20.52
65359;BME280;52491;45.900;6.346;2023-03-05T04:49:13;93606.91;;;23.14;20.49
65359;BME280;52491;45.900;6.346;2023-03-05T04:51:40;93608.50;;;23.15;20.44
65359;BME280;52491;45.900;6.346;2023-03-05T04:54:06;93604.78;;;23.16;20.38
65359;BME280;52491;45.900;6.346;2023-03-05T04:56:32;93602.66;;;23.18;20.43
65359;BME280;52491;45.900;6.346;2023-03-05T04:58:58;93605.31;;;23.18;20.38
65359;BME280;52491;45.900;6.346;2023-03-05T05:01:24;93604.53;;;23.17;20.41
65359;BME280;52491;45.900;6.346;2023-03-05T05:03:50;93601.06;;;23.17;20.37
65359;BME280;52491;45.900;6.346;2023-03-05T05:06:15;93608.25;;;23.16;20.48
65359;BME280;52491;45.900;6.346;2023-03-05T05:08:41;93597.34;;;23.18;20.37
65359;BME280;52491;45.900;6.346;2023-03-05T05:11:11;93604.25;;;23.19;20.40
65359;BME280;52491;45.900;6.346;2023-03-05T05:13:37;93600.56;;;23.20;20.42
65359;BME280;52491;45.900;6.346;2023-03-05T05:16:05;93598.94;;;23.19;20.27
65359;BME280;52491;45.900;6.346;2023-03-05T05:18:31;93594.44;;;23.19;20.23
65359;BME280;52491;45.900;6.346;2023-03-05T05:20:57;93597.34;;;23.18;20.33
65359;BME280;52491;45.900;6.346;2023-03-05T05:23:22;93598.13;;;23.18;20.44
65359;BME280;52491;45.900;6.346;2023-03-05T05:25:58;93597.63;;;23.21;20.24
65359;BME280;52491;45.900;6.346;2023-03-05T05:28:24;93599.47;;;23.21;20.36
65359;BME280;52491;45.900;6.346;2023-03-05T05:30:50;93596.03;;;23.20;20.42
65359;BME280;52491;45.900;6.346;2023-03-05T05:33:16;93602.13;;;23.21;20.29
65359;BME280;52491;45.900;6.346;2023-03-05T05:35:41;93592.28;;;23.21;20.32
65359;BME280;52491;45.900;6.346;2023-03-05T05:38:07;93599.47;;;23.21;20.38
65359;BME280;52491;45.900;6.346;2023-03-05T05:40:32;93590.72;;;23.20;20.34
65359;BME280;52491;45.900;6.346;2023-03-05T05:42:58;93588.84;;;23.21;20.38
65359;BME280;52491;45.900;6.346;2023-03-05T05:45:24;93591.25;;;23.22;20.36
65359;BME280;52491;45.900;6.346;2023-03-05T05:47:49;93585.94;;;23.22;20.40
65359;BME280;52491;45.900;6.346;2023-03-05T05:50:15;93582.47;;;23.22;20.34
65359;BME280;52491;45.900;6.346;2023-03-05T05:52:41;93579.81;;;23.22;20.45
65359;BME280;52491;45.900;6.346;2023-03-05T05:55:07;93582.47;;;23.22;20.37
65359;BME280;52491;45.900;6.346;2023-03-05T05:57:33;93579.81;;;23.22;20.38
65359;BME280;52491;45.900;6.346;2023-03-05T05:59:59;93571.03;;;23.21;20.49
65359;BME280;52491;45.900;6.346;2023-03-05T06:02:24;93574.50;;;23.22;20.23
65359;BME280;52491;45.900;6.346;2023-03-05T06:04:52;93570.78;;;23.23;20.31
65359;BME280;52491;45.900;6.346;2023-03-05T06:07:17;93569.69;;;23.24;20.39
65359;BME280;52491;45.900;6.346;2023-03-05T06:09:43;93571.56;;;23.23;20.33
65359;BME280;52491;45.900;6.346;2023-03-05T06:12:09;93571.31;;;23.25;20.35
65359;BME280;52491;45.900;6.346;2023-03-05T06:14:35;93572.91;;;23.26;20.11
65359;BME280;52491;45.900;6.346;2023-03-05T06:17:01;93572.91;;;23.26;20.23
65359;BME280;52491;45.900;6.346;2023-03-05T06:19:27;93578.22;;;23.26;20.36
65359;BME280;52491;45.900;6.346;2023-03-05T06:21:52;93575.56;;;23.26;20.29
65359;BME280;52491;45.900;6.346;2023-03-05T06:24:18;93571.84;;;23.27;20.42
65359;BME280;52491;45.900;6.346;2023-03-05T06:26:43;93563.06;;;23.27;20.30
65359;BME280;52491;45.900;6.346;2023-03-05T06:29:11;93570.00;;;23.28;20.23
65359;BME280;52491;45.900;6.346;2023-03-05T06:31:37;93572.38;;;23.29;20.35
65359;BME280;52491;45.900;6.346;2023-03-05T06:34:03;93583.00;;;23.29;20.34
65359;BME280;52491;45.900;6.346;2023-03-05T06:36:30;93583.81;;;23.30;20.42
65359;BME280;52491;45.900;6.346;2023-03-05T06:38:56;93576.66;;;23.30;20.22
65359;BME280;52491;45.900;6.346;2023-03-05T06:41:25;93579.81;;;23.32;20.43
65359;BME280;52491;45.900;6.346;2023-03-05T06:43:51;93579.59;;;23.39;20.34
65359;BME280;52491;45.900;6.346;2023-03-05T06:46:31;93580.09;;;23.41;20.14
65359;BME280;52491;45.900;6.346;2023-03-05T06:49:00;93575.63;;;23.41;20.37
65359;BME280;52491;45.900;6.346;2023-03-05T06:51:35;93582.53;;;23.42;20.29
65359;BME280;52491;45.900;6.346;2023-03-05T06:54:06;93578.00;;;23.43;20.32
65359;BME280;52491;45.900;6.346;2023-03-05T06:56:34;93575.34;;;23.43;20.11
65359;BME280;52491;45.900;6.346;2023-03-05T06:59:00;93573.47;;;23.43;20.19
65359;BME280;52491;45.900;6.346;2023-03-05T07:01:25;93574.25;;;23.44;20.27
65359;BME280;52491;45.900;6.346;2023-03-05T07:03:52;93576.66;;;23.45;20.10
65359;BME280;52491;45.900;6.346;2023-03-05T07:06:19;93573.22;;;23.45;20.30
65359;BME280;52491;45.900;6.346;2023-03-05T07:08:45;93570.28;;;23.46;20.12
65359;BME280;52491;45.900;6.346;2023-03-05T07:11:16;93579.88;;;23.48;20.06
65359;BME280;52491;45.900;6.346;2023-03-05T07:13:41;93578.00;;;23.48;20.23
65359;BME280;52491;45.900;6.346;2023-03-05T07:16:10;93570.81;;;23.49;20.17
65359;BME280;52491;45.900;6.346;2023-03-05T07:18:37;93572.69;;;23.48;20.20
65359;BME280;52491;45.900;6.346;2023-03-05T07:21:05;93573.47;;;23.49;20.14
65359;BME280;52491;45.900;6.346;2023-03-05T07:23:31;93578.56;;;23.50;20.33
65359;BME280;52491;45.900;6.346;2023-03-05T07:26:00;93568.69;;;23.51;20.03
65359;BME280;52491;45.900;6.346;2023-03-05T07:28:26;93572.94;;;23.52;20.23
65359;BME280;52491;45.900;6.346;2023-03-05T07:31:04;93569.50;;;23.51;20.28
65359;BME280;52491;45.900;6.346;2023-03-05T07:33:30;93567.91;;;23.50;20.42
65359;BME280;52491;45.900;6.346;2023-03-05T07:35:56;93565.25;;;23.50;20.29
65359;BME280;52491;45.900;6.346;2023-03-05T07:38:22;93571.38;;;23.51;20.58
65359;BME280;52491;45.900;6.346;2023-03-05T07:40:48;93565.25;;;23.50;20.76
65359;BME280;52491;45.900;6.346;2023-03-05T07:43:15;93565.25;;;23.50;20.53
65359;BME280;52491;45.900;6.346;2023-03-05T07:45:42;93566.03;;;23.51;20.69
65359;BME280;52491;45.900;6.346;2023-03-05T07:48:13;93557.25;;;23.50;20.84
65359;BME280;52491;45.900;6.346;2023-03-05T07:50:39;93559.94;;;23.50;20.86
65359;BME280;52491;45.900;6.346;2023-03-05T07:53:05;93556.44;;;23.50;20.85
65359;BME280;52491;45.900;6.346;2023-03-05T07:55:30;93556.44;;;23.50;20.97
65359;BME280;52491;45.900;6.346;2023-03-05T07:57:56;93559.09;;;23.50;21.13
65359;BME280;52491;45.900;6.346;2023-03-05T08:00:22;93554.84;;;23.49;20.98
65359;BME280;52491;45.900;6.346;2023-03-05T08:02:47;93554.84;;;23.49;20.95
65359;BME280;52491;45.900;6.346;2023-03-05T08:05:14;93550.59;;;23.48;21.19
65359;BME280;52491;45.900;6.346;2023-03-05T08:07:40;93550.06;;;23.45;21.15
65359;BME280;52491;45.900;6.346;2023-03-05T08:10:06;93548.72;;;23.43;21.32
65359;BME280;52491;45.900;6.346;2023-03-05T08:12:33;93539.97;;;23.42;21.31
65359;BME280;52491;45.900;6.346;2023-03-05T08:14:58;93544.19;;;23.43;21.36
65359;BME280;52491;45.900;6.346;2023-03-05T08:17:24;93543.94;;;23.45;21.37
65359;BME280;52491;45.900;6.346;2023-03-05T08:19:50;93549.00;;;23.46;21.30
65359;BME280;52491;45.900;6.346;2023-03-05T08:22:15;93540.22;;;23.46;21.42
65359;BME280;52491;45.900;6.346;2023-03-05T08:24:45;93544.50;;;23.47;21.53
65359;BME280;52491;45.900;6.346;2023-03-05T08:27:11;93543.41;;;23.48;21.49
65359;BME280;52491;45.900;6.346;2023-03-05T08:29:36;93543.41;;;23.48;21.58
65359;BME280;52491;45.900;6.346;2023-03-05T08:32:02;93542.34;;;23.49;21.67
65359;BME280;52491;45.900;6.346;2023-03-05T08:34:28;93538.63;;;23.50;21.65
65359;BME280;52491;45.900;6.346;2023-03-05T08:36:54;93530.38;;;23.52;21.62
65359;BME280;52491;45.900;6.346;2023-03-05T08:39:20;93528.78;;;23.51;21.46
65359;BME280;52491;45.900;6.346;2023-03-05T08:41:45;93521.34;;;23.53;21.33
65359;BME280;52491;45.900;6.346;2023-03-05T08:44:11;93514.41;;;23.52;21.26
65359;BME280;52491;45.900;6.346;2023-03-05T08:46:39;93513.38;;;23.53;21.25
65359;BME280;52491;45.900;6.346;2023-03-05T08:49:05;93513.38;;;23.53;21.28
65359;BME280;52491;45.900;6.346;2023-03-05T08:51:32;93512.53;;;23.52;21.17
65359;BME280;52491;45.900;6.346;2023-03-05T08:53:58;93505.38;;;23.53;21.25
65359;BME280;52491;45.900;6.346;2023-03-05T08:56:24;93501.09;;;23.52;21.31
65359;BME280;52491;45.900;6.346;2023-03-05T08:58:52;93498.44;;;23.52;21.33
65359;BME280;52491;45.900;6.346;2023-03-05T09:01:18;93506.44;;;23.52;21.42
65359;BME280;52491;45.900;6.346;2023-03-05T09:03:44;93501.09;;;23.52;21.40
65359;BME280;52491;45.900;6.346;2023-03-05T09:06:10;93509.09;;;23.57;21.35
65359;BME280;52491;45.900;6.346;2023-03-05T09:08:37;93503.22;;;23.55;21.25
65359;BME280;52491;45.900;6.346;2023-03-05T09:11:05;93499.78;;;23.54;21.52
65359;BME280;52491;45.900;6.346;2023-03-05T09:13:31;93503.22;;;23.55;21.36
65359;BME280;52491;45.900;6.346;2023-03-05T09:16:05;93487.28;;;23.55;21.42
65359;BME280;52491;45.900;6.346;2023-03-05T09:18:32;93492.34;;;23.56;21.49
65359;BME280;52491;45.900;6.346;2023-03-05T09:20:57;93484.34;;;23.56;21.50
65359;BME280;52491;45.900;6.346;2023-03-05T09:23:23;93484.06;;;23.58;21.55
65359;BME280;52491;45.900;6.346;2023-03-05T09:25:49;93482.25;;;23.58;21.50
65359;BME280;52491;45.900;6.346;2023-03-05T09:28:15;93478.50;;;23.59;21.57
65359;BME280;52491;45.900;6.346;2023-03-05T09:30:41;93476.63;;;23.60;21.47
65359;BME280;52491;45.900;6.346;2023-03-05T09:33:07;93478.22;;;23.61;21.34
65359;BME280;52491;45.900;6.346;2023-03-05T09:35:34;93475.56;;;23.61;21.57
65359;BME280;52491;45.900;6.346;2023-03-05T09:38:00;93468.41;;;23.61;21.63
65359;BME280;52491;45.900;6.346;2023-03-05T09:40:31;93464.66;;;23.62;21.61
65359;BME280;52491;45.900;6.346;2023-03-05T09:45:43;93461.19;;;23.62;21.66
65359;BME280;52491;45.900;6.346;2023-03-05T09:48:14;93454.25;;;23.61;21.69
65359;BME280;52491;45.900;6.346;2023-03-05T09:53:24;93452.94;;;23.63;21.70
65359;BME280;52491;45.900;6.346;2023-03-05T09:55:58;93452.69;;;23.65;21.90
65359;BME280;52491;45.900;6.346;2023-03-05T09:58:48;93445.25;;;23.67;21.77
65359;BME280;52491;45.900;6.346;2023-03-05T10:01:22;93439.91;;;23.67;21.77
65359;BME280;52491;45.900;6.346;2023-03-05T10:03:59;93437.50;;;23.65;21.73
65359;BME280;52491;45.900;6.346;2023-03-05T10:06:30;93430.31;;;23.66;21.61
65359;BME280;52491;45.900;6.346;2023-03-05T10:11:54;93423.69;;;23.74;21.74
65359;BME280;52491;45.900;6.346;2023-03-05T10:14:31;93414.88;;;23.68;21.94
65359;BME280;52491;45.900;6.346;2023-03-05T10:19:51;93403.44;;;23.67;22.06
65359;BME280;52491;45.900;6.346;2023-03-05T10:22:24;93406.91;;;23.68;22.06
65359;BME280;52491;45.900;6.346;2023-03-05T10:35:39;93390.16;;;23.73;22.18
65359;BME280;52491;45.900;6.346;2023-03-05T10:41:28;93385.34;;;23.75;22.23
65359;BME280;52491;45.900;6.346;2023-03-05T10:46:43;93373.63;;;23.65;21.96
65359;BME280;52491;45.900;6.346;2023-03-05T10:49:47;93372.31;;;23.73;21.82
65359;BME280;52491;45.900;6.346;2023-03-05T10:52:18;93359.78;;;23.68;21.71
65359;BME280;52491;45.900;6.346;2023-03-05T10:54:46;93365.09;;;23.68;21.69
65359;BME280;52491;45.900;6.346;2023-03-05T10:57:20;93353.69;;;23.73;21.59
65359;BME280;52491;45.900;6.346;2023-03-05T11:02:12;93344.09;;;23.67;21.79
65359;BME280;52491;45.900;6.346;2023-03-05T11:04:39;93343.56;;;23.70;21.69
65359;BME280;52491;45.900;6.346;2023-03-05T11:10:05;93331.06;;;23.81;21.95
65359;BME280;52491;45.900;6.346;2023-03-05T11:12:33;93329.19;;;23.76;22.09
65359;BME280;52491;45.900;6.346;2023-03-05T11:17:38;93328.13;;;23.77;22.38
65359;BME280;52491;45.900;6.346;2023-03-05T11:23:13;93318.53;;;23.81;21.97
65359;BME280;52491;45.900;6.346;2023-03-05T11:26:04;93316.13;;;23.85;22.13
65359;BME280;52491;45.900;6.346;2023-03-05T11:28:56;93307.34;;;23.84;22.22
65359;BME280;52491;45.900;6.346;2023-03-05T11:31:27;93299.34;;;23.84;22.46
65359;BME280;52491;45.900;6.346;2023-03-05T11:36:31;93292.94;;;23.85;22.56
65359;BME280;52491;45.900;6.346;2023-03-05T11:44:16;93275.63;;;23.88;23.27
65359;BME280;52491;45.900;6.346;2023-03-05T11:46:53;93277.50;;;23.87;23.46
65359;BME280;52491;45.900;6.346;2023-03-05T11:49:26;93276.16;;;23.90;23.61
65359;BME280;52491;45.900;6.346;2023-03-05T11:52:05;93270.56;;;23.92;23.81
65359;BME280;52491;45.900;6.346;2023-03-05T11:55:09;93268.44;;;23.88;23.82
65359;BME280;52491;45.900;6.346;2023-03-05T12:00:31;93258.63;;;23.89;24.00
65359;BME280;52491;45.900;6.346;2023-03-05T12:03:01;93256.75;;;23.89;24.34
65359;BME280;52491;45.900;6.346;2023-03-05T12:05:28;93252.22;;;23.90;24.24
65359;BME280;52491;45.900;6.346;2023-03-05T12:07:58;93247.41;;;23.92;24.20
65359;BME280;52491;45.900;6.346;2023-03-05T12:10:25;93244.75;;;23.92;24.03
65359;BME280;52491;45.900;6.346;2023-03-05T12:17:59;93228.22;;;23.95;24.73
65359;BME280;52491;45.900;6.346;2023-03-05T12:23:17;93218.91;;;23.98;24.88
65359;BME280;52491;45.900;6.346;2023-03-05T12:25:53;93213.28;;;23.99;25.15
65359;BME280;52491;45.900;6.346;2023-03-05T12:31:00;93203.41;;;24.00;25.22
65359;BME280;52491;45.900;6.346;2023-03-05T12:33:40;93202.88;;;24.03;25.49
65359;BME280;52491;45.900;6.346;2023-03-05T12:38:55;93192.75;;;24.05;25.47
65359;BME280;52491;45.900;6.346;2023-03-05T12:51:49;93171.97;;;24.07;25.85
65359;BME280;52491;45.900;6.346;2023-03-05T12:54:34;93178.59;;;24.09;26.00
65359;BME280;52491;45.900;6.346;2023-03-05T12:57:04;93176.72;;;24.10;25.95
65359;BME280;52491;45.900;6.346;2023-03-05T12:59:58;93160.19;;;24.13;25.73
65359;BME280;52491;45.900;6.346;2023-03-05T13:02:38;93163.66;;;24.13;25.90
65359;BME280;52491;45.900;6.346;2023-03-05T13:05:17;93154.88;;;24.13;26.12
65359;BME280;52491;45.900;6.346;2023-03-05T13:07:46;93155.41;;;24.15;25.50
65359;BME280;52491;45.900;6.346;2023-03-05T13:12:51;93149.22;;;24.20;25.39
65359;BME280;52491;45.900;6.346;2023-03-05T13:15:17;93146.84;;;24.18;25.56
65359;BME280;52491;45.900;6.346;2023-03-05T13:17:56;93148.44;;;24.19;25.79
65359;BME280;52491;45.900;6.346;2023-03-05T13:20:40;93130.38;;;24.11;23.77
65359;BME280;52491;45.900;6.346;2023-03-05T13:23:23;93134.69;;;24.07;24.25
65359;BME280;52491;45.900;6.346;2023-03-05T13:28:27;93125.56;;;24.13;24.56
65359;BME280;52491;45.900;6.346;2023-03-05T13:30:58;93120.78;;;24.15;24.27
65359;BME280;52491;45.900;6.346;2023-03-05T13:33:32;93113.56;;;24.16;24.83
65359;BME280;52491;45.900;6.346;2023-03-05T13:35:59;93123.16;;;24.17;24.56
65359;BME280;52491;45.900;6.346;2023-03-05T13:38:48;93120.22;;;24.18;24.98
65359;BME280;52491;45.900;6.346;2023-03-05T13:43:51;93111.66;;;24.21;24.80
65359;BME280;52491;45.900;6.346;2023-03-05T13:46:30;93107.13;;;24.22;24.97
65359;BME280;52491;45.900;6.346;2023-03-05T13:48:57;93095.69;;;24.21;24.87
65359;BME280;52491;45.900;6.346;2023-03-05T13:51:45;93098.81;;;24.28;24.48
65359;BME280;52491;45.900;6.346;2023-03-05T13:54:14;93094.00;;;24.30;24.63
65359;BME280;52491;45.900;6.346;2023-03-05T13:56:50;93090.84;;;24.28;24.86
65359;BME280;52491;45.900;6.346;2023-03-05T13:59:17;93093.25;;;24.25;24.73
65359;BME280;52491;45.900;6.346;2023-03-05T14:01:45;93082.59;;;24.25;24.98
65359;BME280;52491;45.900;6.346;2023-03-05T14:10:00;93082.31;;;24.26;24.58
65359;BME280;52491;45.900;6.346;2023-03-05T14:12:24;93078.56;;;24.27;24.87
65359;BME280;52491;45.900;6.346;2023-03-05T14:14:55;93070.06;;;24.25;24.47
65359;BME280;52491;45.900;6.346;2023-03-05T14:20:18;93077.53;;;24.28;24.76
65359;BME280;52491;45.900;6.346;2023-03-05T14:22:48;93067.91;;;24.27;24.63
65359;BME280;52491;45.900;6.346;2023-03-05T14:25:35;93068.16;;;24.31;24.81
65359;BME280;52491;45.900;6.346;2023-03-05T14:31:01;93058.78;;;24.33;24.44
65359;BME280;52491;45.900;6.346;2023-03-05T14:33:31;93052.69;;;24.33;25.07
65359;BME280;52491;45.900;6.346;2023-03-05T14:35:58;93055.88;;;24.35;25.08
65359;BME280;52491;45.900;6.346;2023-03-05T14:38:30;93051.31;;;24.35;25.07
65359;BME280;52491;45.900;6.346;2023-03-05T14:40:58;93055.56;;;24.37;24.73